Time;durP1;ratioP1;P1;durP2;ratioP2;P2;SDS_P1;SDS_P2;PMS_P1;PMS_P2;Temp;Humidity;BMP_temperature;BMP_pressure;BME280_temperature;BME280_humidity;BME280_pressure;Samples;Min_cycle;Max_cycle;Signal;HPM_P1;HPM_P2
2021/11/30 00:00:04;;;;;;;;;;;10.50;99.90;;;;;;5032932;28;20032;-78
2021/11/30 00:02:29;;;;;;;;;;;10.60;99.90;;;;;;5032879;28;19905;-78
2021/11/30 00:04:56;;;;;;;5.88;4.80;;;10.50;99.90;;;;;;5031147;28;19923;-77
2021/11/30 00:07:21;;;;;;;6.30;5.20;;;10.50;99.90;;;;;;5032192;28;20404;-77
2021/11/30 00:12:14;;;;;;;6.30;5.00;;;10.60;99.90;;;;;;5032130;28;20049;-77
2021/11/30 00:14:42;;;;;;;5.63;5.13;;;10.60;99.90;;;;;;5032104;28;20049;-76
2021/11/30 00:17:08;;;;;;;5.30;4.80;;;10.60;99.90;;;;;;5029982;28;20392;-77
2021/11/30 00:19:35;;;;;;;5.60;4.68;;;10.60;99.90;;;;;;5030434;28;20064;-77
2021/11/30 00:22:02;;;;;;;6.88;5.18;;;10.60;99.90;;;;;;5032072;28;20100;-77
2021/11/30 00:24:29;;;;;;;6.97;5.00;;;10.60;99.90;;;;;;5032054;28;20029;-77
2021/11/30 00:26:57;;;;;;;6.38;5.32;;;10.60;99.90;;;;;;5032065;28;20030;-77
2021/11/30 00:29:23;;;;;;;5.55;5.00;;;10.60;99.90;;;;;;5030487;28;20044;-78
2021/11/30 00:31:48;;;;;;;4.82;4.32;;;10.60;99.90;;;;;;5030345;28;20033;-77
2021/11/30 00:34:14;;;;;;;5.60;4.70;;;10.60;99.90;;;;;;5030760;28;20048;-79
2021/11/30 00:36:40;;;;;;;6.45;4.88;;;10.70;99.90;;;;;;5030562;28;20495;-78
2021/11/30 00:39:06;;;;;;;5.20;4.57;;;10.60;99.90;;;;;;5030547;28;20037;-77
2021/11/30 00:41:32;;;;;;;7.43;4.28;;;10.70;99.90;;;;;;5030452;28;20629;-78
2021/11/30 00:43:58;;;;;;;4.97;4.47;;;10.70;99.90;;;;;;5031676;28;20036;-78
2021/11/30 00:48:59;;;;;;;4.32;3.92;;;10.70;99.90;;;;;;5030375;28;20112;-78
2021/11/30 00:51:25;;;;;;;7.03;4.68;;;10.70;99.90;;;;;;5013745;28;20029;-78
2021/11/30 00:53:51;;;;;;;9.13;5.50;;;10.70;99.90;;;;;;5030339;28;20484;-78
2021/11/30 00:56:18;;;;;;;6.13;5.13;;;10.70;99.90;;;;;;5031532;28;20025;-78
2021/11/30 00:58:46;;;;;;;6.00;5.25;;;10.70;99.90;;;;;;5030208;28;20028;-78
2021/11/30 01:01:12;;;;;;;7.32;5.50;;;10.70;99.90;;;;;;5013586;28;20541;-78
2021/11/30 01:03:39;;;;;;;6.65;5.40;;;10.70;99.90;;;;;;5031271;28;20091;-79
2021/11/30 01:06:06;;;;;;;6.53;5.40;;;10.70;99.90;;;;;;5031393;28;20029;-78
2021/11/30 01:08:31;;;;;;;5.72;5.20;;;10.70;99.90;;;;;;5029659;28;20075;-76
2021/11/30 01:10:57;;;;;;;6.45;5.82;;;10.70;99.90;;;;;;5031339;28;20519;-76
2021/11/30 01:13:23;;;;;;;6.80;5.75;;;10.70;99.90;;;;;;5013688;28;20029;-76
2021/11/30 01:15:49;;;;;;;8.27;6.85;;;10.70;99.90;;;;;;5031290;28;20392;-77
2021/11/30 01:18:15;;;;;;;8.18;6.47;;;10.70;99.90;;;;;;5029952;28;20061;-77
2021/11/30 01:20:41;;;;;;;10.77;7.68;;;10.80;99.90;;;;;;5013472;28;20030;-77
2021/11/30 01:23:07;;;;;;;6.25;5.65;;;10.70;99.90;;;;;;5031210;28;20047;-77
2021/11/30 01:25:34;;;;;;;7.55;6.85;;;10.80;99.90;;;;;;5030213;28;20030;-76
2021/11/30 01:28:00;;;;;;;8.13;5.45;;;10.70;99.90;;;;;;5013317;28;20124;-77
2021/11/30 01:30:26;;;;;;;6.30;5.70;;;10.70;99.90;;;;;;5033306;28;20128;-78
2021/11/30 01:32:52;;;;;;;6.85;5.72;;;10.80;99.90;;;;;;5033853;28;20041;-77
2021/11/30 01:35:19;;;;;;;7.38;5.95;;;10.70;99.90;;;;;;5035375;28;20071;-77
2021/11/30 01:37:46;;;;;;;7.70;6.90;;;10.80;99.90;;;;;;5034082;28;20034;-77
2021/11/30 01:40:16;;;;;;;9.27;6.05;;;10.80;99.90;;;;;;5035032;28;20038;-77
2021/11/30 01:42:45;;;;;;;6.45;5.60;;;10.80;99.90;;;;;;5034990;28;20105;-77
2021/11/30 01:45:19;;;;;;;8.48;6.22;;;10.80;99.90;;;;;;5033626;28;20029;-76
2021/11/30 01:50:31;;;;;;;6.30;5.68;;;10.80;99.90;;;;;;5033918;28;20039;-77
2021/11/30 01:52:57;;;;;;;6.93;6.20;;;10.90;99.90;;;;;;5017305;28;20124;-77
2021/11/30 01:55:23;;;;;;;7.38;5.88;;;10.90;99.90;;;;;;5033589;28;20460;-76
2021/11/30 01:57:52;;;;;;;8.20;6.15;;;10.90;99.90;;;;;;5034724;28;20388;-78
2021/11/30 02:00:20;;;;;;;6.07;5.47;;;10.90;99.90;;;;;;5001442;28;20373;-77
2021/11/30 02:02:46;;;;;;;8.43;6.47;;;10.90;99.90;;;;;;5034654;28;20472;-76
2021/11/30 02:05:12;;;;;;;7.35;6.53;;;10.90;99.90;;;;;;5034741;28;20399;-77
2021/11/30 02:07:38;;;;;;;;;;;10.90;99.90;;;;;;5033552;28;20068;-76
2021/11/30 02:10:08;;;;;;;8.60;6.72;;;10.90;99.90;;;;;;5034358;28;19978;-77
2021/11/30 02:12:36;;;;;;;8.75;7.50;;;10.90;99.90;;;;;;5034391;28;20036;-76
2021/11/30 02:15:03;;;;;;;8.38;7.07;;;10.90;99.90;;;;;;5033265;28;20476;-76
2021/11/30 02:17:29;;;;;;;9.10;7.18;;;10.90;99.90;;;;;;5033096;28;20052;-75
2021/11/30 02:19:59;;;;;;;8.05;6.70;;;10.90;99.90;;;;;;5033035;28;20022;-77
2021/11/30 02:22:26;;;;;;;9.90;7.97;;;10.90;99.90;;;;;;5017298;28;20033;-77
2021/11/30 02:24:52;;;;;;;7.10;6.18;;;10.90;99.90;;;;;;5032974;28;20030;-78
2021/11/30 02:27:20;;;;;;;9.30;6.85;;;10.90;99.90;;;;;;5033068;28;20036;-77
2021/11/30 02:29:46;;;;;;;7.88;6.50;;;10.90;99.90;;;;;;5034022;28;20044;-77
2021/11/30 02:32:12;;;;;;;6.15;5.55;;;10.90;99.90;;;;;;5000196;28;20084;-77
2021/11/30 02:34:39;;;;;;;7.20;6.50;;;10.90;99.90;;;;;;5032965;28;20468;-77
2021/11/30 02:37:06;;;;;;;7.10;6.50;;;10.90;99.90;;;;;;5034219;28;20064;-78
2021/11/30 02:39:34;;;;;;;7.38;6.75;;;10.90;99.90;;;;;;5032648;28;20039;-76
2021/11/30 02:42:02;;;;;;;6.45;5.85;;;11.00;99.90;;;;;;5032711;28;20029;-77
2021/11/30 02:44:29;;;;;;;6.93;6.22;;;10.90;99.90;;;;;;5033920;28;20052;-77
2021/11/30 02:46:59;;;;;;;;;;;10.90;99.90;;;;;;5016651;28;20077;-76
2021/11/30 02:49:28;;;;;;;7.07;6.38;;;10.90;99.90;;;;;;5033671;28;19920;-77
2021/11/30 02:52:03;;;;;;;7.30;6.60;;;11.00;99.90;;;;;;5033682;28;20021;-76
2021/11/30 02:54:29;;;;;;;8.02;7.22;;;11.00;99.90;;;;;;5032587;28;20029;-78
2021/11/30 02:56:58;;;;;;;7.82;7.03;;;11.00;99.90;;;;;;5033927;28;20025;-78
2021/11/30 02:59:26;;;;;;;7.78;6.97;;;11.00;99.90;;;;;;5032254;28;20082;-78
2021/11/30 03:02:04;;;;;;;7.75;6.90;;;11.00;99.90;;;;;;5033589;28;20040;-76
2021/11/30 03:04:31;;;;;;;8.52;7.05;;;11.00;99.90;;;;;;5032302;28;20044;-76
2021/11/30 03:06:57;;;;;;;6.90;6.20;;;11.00;99.90;;;;;;5033458;28;20033;-77
2021/11/30 03:09:24;;;;;;;8.15;7.35;;;11.10;99.90;;;;;;5033238;28;20137;-78
2021/11/30 03:11:51;;;;;;;6.72;6.07;;;11.10;99.90;;;;;;5033447;28;20104;-76
2021/11/30 03:14:16;;;;;;;8.35;7.20;;;11.10;99.90;;;;;;5033451;28;20030;-76
2021/11/30 03:16:45;;;;;;;7.80;7.00;;;11.10;99.90;;;;;;5015646;28;20389;-77
2021/11/30 03:19:11;;;;;;;7.28;6.60;;;11.10;99.90;;;;;;5032051;28;20060;-78
2021/11/30 03:21:37;;;;;;;7.72;6.97;;;11.10;99.90;;;;;;5031885;28;20468;-76
2021/11/30 03:24:03;;;;;;;7.38;6.68;;;11.10;99.90;;;;;;5033219;28;20040;-77
2021/11/30 03:26:29;;;;;;;8.00;7.18;;;11.10;99.90;;;;;;5032078;28;20032;-76
2021/11/30 03:28:55;;;;;;;7.40;6.75;;;11.10;99.90;;;;;;5031786;28;20041;-76
2021/11/30 03:31:48;;;;;;;7.78;7.07;;;11.10;99.90;;;;;;5032989;28;20026;-77
2021/11/30 03:34:22;;;;;;;7.90;6.72;;;11.20;99.90;;;;;;5031769;28;20025;-77
2021/11/30 03:36:53;;;;;;;6.88;6.38;;;11.20;99.90;;;;;;5033174;28;20377;-76
2021/11/30 03:39:24;;;;;;;7.13;6.43;;;11.20;99.90;;;;;;5015051;28;20029;-77
2021/11/30 03:41:51;;;;;;;7.20;6.50;;;11.20;99.90;;;;;;5032786;28;20052;-77
2021/11/30 03:44:17;;;;;;;7.30;6.60;;;11.20;99.90;;;;;;5031622;28;20480;-77
2021/11/30 03:46:44;;;;;;;9.65;6.68;;;11.20;99.90;;;;;;5033037;28;20040;-77
2021/11/30 03:49:11;;;;;;;7.80;6.90;;;11.20;99.90;;;;;;5032516;28;20353;-76
2021/11/30 03:51:37;;;;;;;6.50;5.90;;;11.20;99.90;;;;;;5030861;28;20029;-78
2021/11/30 03:54:05;;;;;;;6.32;5.72;;;11.20;99.90;;;;;;5032531;28;20021;-78
2021/11/30 03:56:31;;;;;;;7.78;6.43;;;11.20;99.90;;;;;;5031038;28;20426;-78
2021/11/30 03:58:57;;;;;;;6.53;5.57;;;11.20;99.90;;;;;;5031158;28;20028;-77
2021/11/30 04:01:23;;;;;;;6.65;5.95;;;11.20;99.90;;;;;;5032490;28;20461;-79
2021/11/30 04:03:49;;;;;;;5.85;5.25;;;11.30;99.90;;;;;;5031117;28;20038;-77
2021/11/30 04:06:15;;;;;;;6.68;5.82;;;11.30;99.90;;;;;;5032441;28;20096;-78
2021/11/30 04:08:41;;;;;;;6.30;5.68;;;11.30;99.90;;;;;;5014058;28;20132;-78
2021/11/30 04:11:08;;;;;;;6.53;5.93;;;11.30;99.90;;;;;;5032263;28;20527;-78
2021/11/30 04:13:35;;;;;;;6.50;5.80;;;11.30;99.90;;;;;;5032342;28;20442;-78
2021/11/30 04:16:00;;;;;;;6.10;5.50;;;11.30;99.90;;;;;;5030867;28;20085;-78
2021/11/30 04:18:27;;;;;;;6.43;5.82;;;11.30;99.90;;;;;;5032297;28;20072;-78
2021/11/30 04:20:53;;;;;;;6.32;5.80;;;11.30;99.90;;;;;;5030696;28;20116;-78
2021/11/30 04:23:19;;;;;;;;;;;11.30;99.90;;;;;;5032526;28;20029;-79
2021/11/30 04:25:44;;;;;;;7.07;6.35;;;11.30;99.90;;;;;;5030719;28;19967;-78
2021/11/30 04:28:10;;;;;;;6.70;6.10;;;11.30;99.90;;;;;;5031960;28;20528;-78
2021/11/30 04:30:36;;;;;;;6.75;6.05;;;11.30;99.90;;;;;;5030799;28;20121;-79
2021/11/30 04:33:02;;;;;;;7.07;6.38;;;11.30;99.90;;;;;;5030720;28;20048;-79
2021/11/30 04:35:28;;;;;;;8.27;5.97;;;11.30;99.90;;;;;;5031926;28;20494;-78
2021/11/30 04:37:54;;;;;;;7.38;6.30;;;11.30;99.90;;;;;;5031766;28;20025;-77
2021/11/30 04:40:20;;;;;;;7.47;6.50;;;11.30;99.90;;;;;;5032173;28;20044;-78
2021/11/30 04:42:47;;;;;;;8.10;7.18;;;11.40;99.90;;;;;;5030447;28;20029;-77
2021/11/30 04:45:30;;;;;;;8.50;7.32;;;11.40;99.90;;;;;;5031822;28;20095;-78
2021/11/30 04:47:56;;;;;;;7.00;6.30;;;11.40;99.90;;;;;;5030238;28;20091;-78
2021/11/30 04:50:29;;;;;;;;;;;11.40;99.90;;;;;;5031856;28;20049;-78
2021/11/30 04:52:57;;;;;;;8.20;7.40;;;11.40;99.90;;;;;;5030328;28;19909;-77
2021/11/30 04:55:28;;;;;;;7.90;7.10;;;11.40;99.90;;;;;;5013994;28;20033;-77
2021/11/30 04:57:57;;;;;;;9.23;7.03;;;11.40;99.90;;;;;;5014773;28;20029;-77
2021/11/30 05:00:24;;;;;;;8.35;7.05;;;11.30;99.90;;;;;;5031456;28;20021;-77
2021/11/30 05:02:50;;;;;;;12.32;6.78;;;11.40;99.90;;;;;;5031375;28;20033;-78
2021/11/30 05:05:16;;;;;;;6.43;5.40;;;11.40;99.90;;;;;;5029502;28;20450;-78
2021/11/30 05:07:42;;;;;;;6.15;5.55;;;11.40;99.90;;;;;;5030010;28;20087;-77
2021/11/30 05:10:09;;;;;;;;;;;11.40;99.90;;;;;;5031562;28;20156;-78
2021/11/30 05:12:34;;;;;;;5.97;5.18;;;11.30;99.90;;;;;;5030152;28;20326;-78
2021/11/30 05:15:01;;;;;;;5.10;4.70;;;11.30;99.90;;;;;;5030241;28;20026;-78
2021/11/30 05:17:27;;;;;;;5.35;4.88;;;11.30;99.90;;;;;;5031349;28;20120;-78
2021/11/30 05:19:52;;;;;;;5.82;5.32;;;11.30;99.90;;;;;;5031083;28;20476;-78
2021/11/30 05:22:18;;;;;;;5.25;4.75;;;11.30;99.90;;;;;;5013443;28;20543;-78
2021/11/30 05:24:44;;;;;;;5.20;4.72;;;11.30;99.90;;;;;;5029944;28;20029;-78
2021/11/30 05:27:10;;;;;;;5.82;5.22;;;11.30;99.90;;;;;;5013472;28;20480;-78
2021/11/30 05:29:35;;;;;;;5.30;4.80;;;11.20;99.90;;;;;;5013558;28;20045;-79
2021/11/30 05:32:01;;;;;;;5.85;4.80;;;11.20;99.90;;;;;;5013555;28;20033;-77
2021/11/30 05:34:27;;;;;;;5.70;4.93;;;11.20;99.90;;;;;;5029722;28;20092;-78
2021/11/30 05:36:53;;;;;;;6.00;5.20;;;11.20;99.90;;;;;;5013389;28;20056;-78
2021/11/30 05:39:18;;;;;;;6.10;5.50;;;11.20;99.90;;;;;;5029743;28;20057;-77
2021/11/30 05:41:44;;;;;;;6.93;5.35;;;11.20;99.90;;;;;;4996794;28;20064;-77
2021/11/30 05:44:10;;;;;;;9.18;5.47;;;11.20;99.90;;;;;;5029652;28;20040;-78
2021/11/30 05:46:37;;;;;;;9.10;5.72;;;11.20;99.90;;;;;;5029602;28;20064;-78
2021/11/30 05:49:06;;;;;;;9.40;6.85;;;11.20;99.90;;;;;;5029405;28;20022;-78
2021/11/30 05:51:33;;;;;;;8.85;6.85;;;11.20;99.90;;;;;;5031106;28;20113;-78
2021/11/30 05:53:59;;;;;;;10.48;6.80;;;11.20;99.90;;;;;;5030918;28;20026;-77
2021/11/30 05:56:25;;;;;;;12.63;6.53;;;11.30;99.90;;;;;;5013018;28;20033;-78
2021/11/30 05:58:51;;;;;;;15.65;7.25;;;11.30;99.90;;;;;;5013344;28;20087;-77
2021/11/30 06:01:23;;;;;;;13.07;7.80;;;11.30;99.90;;;;;;5029747;28;20114;-78
2021/11/30 06:06:18;;;;;;;13.98;7.47;;;11.30;99.90;;;;;;5031120;28;20118;-78
2021/11/30 06:08:44;;;;;;;14.07;7.68;;;11.30;99.90;;;;;;5029354;28;20077;-78
2021/11/30 06:11:10;;;;;;;11.02;7.30;;;11.30;99.90;;;;;;5030843;28;20092;-78
2021/11/30 06:13:36;;;;;;;9.07;5.88;;;11.30;99.90;;;;;;5029538;28;20421;-78
2021/11/30 06:16:02;;;;;;;8.13;5.68;;;11.30;99.90;;;;;;5033222;28;20021;-79
2021/11/30 06:18:28;;;;;;;7.72;5.53;;;11.30;99.90;;;;;;5016639;28;20495;-77
2021/11/30 06:20:54;;;;;;;10.85;6.70;;;11.30;99.90;;;;;;5032989;28;20033;-77
2021/11/30 06:23:20;;;;;;;8.65;5.97;;;11.30;99.90;;;;;;5034306;28;20448;-78
2021/11/30 06:25:46;;;;;;;7.70;6.22;;;11.30;99.90;;;;;;5034419;28;20040;-77
2021/11/30 06:28:12;;;;;;;9.75;5.90;;;11.30;99.90;;;;;;5034073;28;20034;-77
2021/11/30 06:30:37;;;;;;;10.30;5.78;;;11.30;99.90;;;;;;5032477;28;20044;-79
2021/11/30 06:33:03;;;;;;;6.60;5.85;;;11.30;99.90;;;;;;5034081;28;20529;-78
2021/11/30 06:35:30;;;;;;;6.28;4.90;;;11.20;99.90;;;;;;5033973;28;20112;-78
2021/11/30 06:37:56;;;;;;;6.30;5.70;;;11.20;99.90;;;;;;5032641;28;20034;-78
2021/11/30 06:40:21;;;;;;;6.20;4.82;;;11.20;99.90;;;;;;5016158;28;20191;-78
2021/11/30 06:42:47;;;;;;;4.60;4.10;;;11.20;99.90;;;;;;5033859;28;20416;-78
2021/11/30 06:45:13;;;;;;;5.18;4.78;;;11.20;99.90;;;;;;5033997;28;20117;-77
2021/11/30 06:47:42;;;;;;;4.15;3.75;;;11.10;99.90;;;;;;5032486;28;20503;-78
2021/11/30 06:50:09;;;;;;;4.63;4.20;;;11.10;99.90;;;;;;5032664;28;20045;-77
2021/11/30 06:52:37;;;;;;;4.97;4.47;;;11.10;99.90;;;;;;5032454;28;20521;-78
2021/11/30 06:55:04;;;;;;;4.97;4.53;;;11.10;99.90;;;;;;5032379;28;20022;-78
2021/11/30 06:57:29;;;;;;;5.68;5.07;;;11.10;99.90;;;;;;5033340;28;20030;-78
2021/11/30 07:00:00;;;;;;;5.70;5.18;;;11.10;99.90;;;;;;5015500;28;20490;-78
2021/11/30 07:02:25;;;;;;;5.20;4.70;;;11.10;99.90;;;;;;5016126;28;20124;-78
2021/11/30 07:04:55;;;;;;;5.38;4.55;;;11.10;99.90;;;;;;5033489;28;20516;-77
2021/11/30 07:07:28;;;;;;;5.47;4.97;;;11.10;99.90;;;;;;5032241;28;20495;-78
2021/11/30 07:12:54;;;;;;;5.47;4.97;;;11.10;99.90;;;;;;5024417;28;20044;-77
2021/11/30 07:15:22;;;;;;;4.78;4.28;;;11.10;99.90;;;;;;5016733;28;20032;-77
2021/11/30 07:17:48;;;;;;;8.57;4.82;;;11.10;99.90;;;;;;5031723;28;20030;-77
2021/11/30 07:20:14;;;;;;;6.03;5.43;;;11.10;99.90;;;;;;5033102;28;20052;-77
2021/11/30 07:22:40;;;;;;;6.97;4.93;;;11.10;99.90;;;;;;5031780;28;20352;-77
2021/11/30 07:25:06;;;;;;;10.27;5.30;;;11.10;99.90;;;;;;5031717;28;20082;-78
2021/11/30 07:27:31;;;;;;;9.40;5.40;;;11.10;99.90;;;;;;5032329;28;20435;-78
2021/11/30 07:29:57;;;;;;;9.82;5.32;;;11.10;99.90;;;;;;5032526;28;20029;-78
2021/11/30 07:32:23;;;;;;;8.88;5.35;;;11.10;99.90;;;;;;5015127;28;20029;-78
2021/11/30 07:34:48;;;;;;;9.32;5.65;;;11.10;99.90;;;;;;5031180;28;20083;-78
2021/11/30 07:37:14;;;;;;;8.63;5.45;;;11.10;99.90;;;;;;5014891;28;20105;-78
2021/11/30 07:39:40;;;;;;;9.75;5.68;;;11.10;99.90;;;;;;5032223;28;20562;-76
2021/11/30 07:42:06;;;;;;;8.23;5.55;;;11.10;99.90;;;;;;5032273;28;20034;-77
2021/11/30 07:44:32;;;;;;;;;;;11.10;99.90;;;;;;5032298;28;20371;-78
2021/11/30 07:46:58;;;;;;;7.47;4.70;;;11.10;99.90;;;;;;5031195;28;19909;-77
2021/11/30 07:49:23;;;;;;;5.93;5.00;;;11.10;99.90;;;;;;5031192;28;20094;-77
2021/11/30 07:51:49;;;;;;;4.90;4.50;;;11.10;99.90;;;;;;5030491;28;20025;-79
2021/11/30 07:54:15;;;;;;;4.90;4.40;;;11.10;99.90;;;;;;5014590;28;20132;-78
2021/11/30 07:56:41;;;;;;;4.97;4.57;;;11.10;99.90;;;;;;5030781;28;20030;-79
2021/11/30 07:59:08;;;;;;;4.35;3.95;;;11.10;99.90;;;;;;5031968;28;20025;-78
2021/11/30 08:01:33;;;;;;;4.72;4.32;;;11.10;99.90;;;;;;5032102;28;20117;-77
2021/11/30 08:03:59;;;;;;;4.50;4.10;;;11.10;99.90;;;;;;5030946;28;20144;-77
2021/11/30 08:06:25;;;;;;;5.05;4.45;;;11.10;99.90;;;;;;5032008;28;20042;-77
2021/11/30 08:08:52;;;;;;;4.90;4.45;;;11.00;99.90;;;;;;5030719;28;20046;-78
2021/11/30 08:11:18;;;;;;;5.88;5.32;;;11.00;99.90;;;;;;5030438;28;20391;-77
2021/11/30 08:13:44;;;;;;;6.50;5.40;;;11.00;99.90;;;;;;5014224;28;20026;-78
2021/11/30 08:16:10;;;;;;;9.05;5.43;;;11.00;99.90;;;;;;4997838;28;20171;-77
2021/11/30 08:18:35;;;;;;;5.88;4.38;;;11.00;99.90;;;;;;5030680;28;20050;-77
2021/11/30 08:21:01;;;;;;;6.75;4.38;;;11.00;99.90;;;;;;4998003;28;20036;-78
2021/11/30 08:23:27;;;;;;;5.20;4.63;;;11.00;99.90;;;;;;5030401;28;20048;-77
2021/11/30 08:25:53;;;;;;;5.38;4.97;;;11.00;99.90;;;;;;5014031;28;20409;-78
2021/11/30 08:28:18;;;;;;;8.50;6.07;;;11.00;99.90;;;;;;5013798;28;20040;-77
2021/11/30 08:30:48;;;;;;;7.13;5.72;;;11.00;99.90;;;;;;5030214;28;20040;-77
2021/11/30 08:33:15;;;;;;;6.53;4.85;;;11.00;99.90;;;;;;5032043;28;20021;-77
2021/11/30 08:35:41;;;;;;;5.13;4.53;;;10.90;99.90;;;;;;5031435;28;20025;-79
2021/11/30 08:38:07;;;;;;;6.82;5.00;;;11.00;99.90;;;;;;4996930;28;20033;-78
2021/11/30 08:40:33;;;;;;;6.57;5.07;;;11.00;99.90;;;;;;5031194;28;20035;-78
2021/11/30 08:42:59;;;;;;;11.20;6.15;;;11.00;99.90;;;;;;5030067;28;20032;-77
2021/11/30 08:45:25;;;;;;;;;;;11.00;99.90;;;;;;5030504;28;20095;-77
2021/11/30 08:47:51;;;;;;;8.77;6.35;;;11.00;99.90;;;;;;5031254;28;20403;-78
2021/11/30 08:50:18;;;;;;;9.57;6.38;;;10.90;99.90;;;;;;5029024;28;20078;-79
2021/11/30 08:52:45;;;;;;;8.40;5.72;;;10.90;99.90;;;;;;5013283;28;20388;-77
2021/11/30 08:55:11;;;;;;;8.82;5.88;;;10.90;99.90;;;;;;5031018;28;20018;-78
2021/11/30 08:57:38;;;;;;;8.82;6.55;;;10.90;99.90;;;;;;5029717;28;20029;-77
2021/11/30 09:00:11;;;;;;;9.18;5.70;;;10.90;99.90;;;;;;5013413;28;20037;-78
2021/11/30 09:02:37;;;;;;;8.95;5.57;;;10.90;99.90;;;;;;5030542;28;20037;-78
2021/11/30 09:05:05;;;;;;;6.55;5.28;;;10.90;99.90;;;;;;5029455;28;20033;-77
2021/11/30 09:07:31;;;;;;;6.88;5.32;;;10.90;99.90;;;;;;5029274;28;20025;-74
2021/11/30 09:09:57;;;;;;;6.25;5.18;;;10.90;99.90;;;;;;5029251;28;20042;-78
2021/11/30 09:12:24;;;;;;;7.40;5.80;;;10.90;99.90;;;;;;5029761;28;20030;-77
2021/11/30 09:14:50;;;;;;;;;;;10.90;99.90;;;;;;5029836;28;20040;-78
2021/11/30 09:17:17;;;;;;;8.23;5.95;;;10.90;99.90;;;;;;5030550;28;20363;-78
2021/11/30 09:19:42;;;;;;;16.85;6.93;;;11.00;99.90;;;;;;5030889;28;20021;-78
2021/11/30 09:22:08;;;;;;;9.93;6.20;;;11.00;99.90;;;;;;5030700;28;20029;-78
2021/11/30 09:24:34;;;;;;;8.63;5.20;;;11.00;99.90;;;;;;5029391;28;20084;-78
2021/11/30 09:27:00;;;;;;;;;;;11.00;99.90;;;;;;5029477;28;20033;-78
2021/11/30 09:29:26;;;;;;;8.18;5.90;;;11.00;99.90;;;;;;5030578;28;19955;-77
2021/11/30 09:31:52;;;;;;;;;;;11.00;99.90;;;;;;5030836;28;20049;-78
2021/11/30 09:34:18;;;;;;;6.93;5.13;;;11.00;99.90;;;;;;5030401;28;19955;-78
2021/11/30 09:36:46;;;;;;;11.88;5.70;;;10.90;99.90;;;;;;5030680;28;20080;-78
2021/11/30 09:39:12;;;;;;;11.40;6.22;;;11.00;99.90;;;;;;5030489;28;20053;-78
2021/11/30 09:41:38;;;;;;;8.93;5.53;;;11.00;99.90;;;;;;5030641;28;20053;-78
2021/11/30 09:44:05;;;;;;;10.35;5.15;;;11.00;99.90;;;;;;5029122;28;20112;-78
2021/11/30 09:46:31;;;;;;;7.22;4.93;;;11.00;99.90;;;;;;5029227;28;20030;-77
2021/11/30 09:48:57;;;;;;;;;;;11.00;99.90;;;;;;5029266;28;20510;-78
2021/11/30 09:51:23;;;;;;;11.43;5.28;;;11.10;99.90;;;;;;5032279;28;19911;-77
2021/11/30 09:53:49;;;;;;;9.73;5.35;;;11.10;99.90;;;;;;5032927;28;20120;-78
2021/11/30 09:56:15;;;;;;;10.23;5.55;;;11.10;99.90;;;;;;5034141;28;20095;-78
2021/11/30 09:58:41;;;;;;;13.75;5.65;;;11.10;99.90;;;;;;5034147;28;20079;-78
2021/11/30 10:01:12;;;;;;;8.32;4.40;;;11.10;99.90;;;;;;5016893;28;20124;-78
2021/11/30 10:03:40;;;;;;;7.28;4.93;;;11.10;99.90;;;;;;5035505;28;20582;-78
2021/11/30 10:06:07;;;;;;;6.15;4.45;;;11.10;99.90;;;;;;5036281;28;20025;-79
2021/11/30 10:08:41;;;;;;;4.22;2.83;;;11.20;99.90;;;;;;5036255;28;20093;-77
2021/11/30 10:11:10;;;;;;;7.97;3.70;;;11.20;99.90;;;;;;5036092;28;20049;-77
2021/11/30 10:13:37;;;;;;;5.32;2.90;;;11.20;99.90;;;;;;5035956;28;20025;-77
2021/11/30 10:16:06;;;;;;;5.95;2.70;;;11.20;99.90;;;;;;5034721;28;20040;-78
2021/11/30 10:18:40;;;;;;;4.20;2.78;;;11.20;99.90;;;;;;5036151;28;20029;-77
2021/11/30 10:21:09;;;;;;;6.03;2.65;;;11.20;99.90;;;;;;5036171;28;20388;-77
2021/11/30 10:23:59;;;;;;;3.42;1.92;;;11.20;99.90;;;;;;5047972;28;20117;-78
2021/11/30 10:26:33;;;;;;;3.50;2.08;;;11.30;99.90;;;;;;5035189;28;20037;-77
2021/11/30 10:29:04;;;;;;;2.85;1.80;;;11.30;99.90;;;;;;5034442;28;20033;-77
2021/11/30 10:31:51;;;;;;;2.50;1.95;;;11.40;99.90;;;;;;5034844;28;20021;-77
2021/11/30 10:34:28;;;;;;;3.70;2.17;;;11.40;99.90;;;;;;5034848;28;20025;-78
2021/11/30 10:36:58;;;;;;;;;;;11.40;99.90;;;;;;5035179;28;20025;-78
2021/11/30 10:39:26;;;;;;;2.90;1.90;;;11.50;99.90;;;;;;5034764;28;19905;-77
2021/11/30 10:42:10;;;;;;;6.45;2.90;;;11.50;99.90;;;;;;5034467;28;20045;-77
2021/11/30 10:44:36;;;;;;;3.88;2.28;;;11.50;99.90;;;;;;5034658;28;20846;-77
2021/11/30 10:47:16;;;;;;;6.03;2.60;;;11.50;99.90;;;;;;5034395;28;20049;-77
2021/11/30 10:49:49;;;;;;;3.20;2.30;;;11.50;99.90;;;;;;5036781;28;20498;-77
2021/11/30 10:52:21;;;;;;;3.10;2.10;;;11.50;99.90;;;;;;5035458;28;20021;-77
2021/11/30 10:54:47;;;;;;;3.20;2.13;;;11.60;99.90;;;;;;5047893;28;20025;-76
2021/11/30 10:57:13;;;;;;;3.50;2.05;;;11.60;99.90;;;;;;5054143;28;20428;-77
2021/11/30 10:59:39;;;;;;;;;;;11.70;99.90;;;;;;5045913;28;20033;-77
2021/11/30 11:02:05;;;;;;;4.53;2.38;;;11.70;99.90;;;;;;5043052;28;19924;-76
2021/11/30 11:04:40;;;;;;;6.47;2.33;;;11.70;99.90;;;;;;5004046;28;20033;-77
2021/11/30 11:07:11;;;;;;;3.53;2.20;;;11.80;99.90;;;;;;5017634;28;20041;-78
2021/11/30 11:09:44;;;;;;;5.82;2.92;;;11.80;99.90;;;;;;5043919;28;20052;-77
2021/11/30 11:12:10;;;;;;;5.05;2.13;;;11.90;99.90;;;;;;5047842;28;20017;-78
2021/11/30 11:14:48;;;;;;;5.85;2.90;;;12.00;99.90;;;;;;5053426;28;20036;-78
2021/11/30 11:17:32;;;;;;;7.45;3.83;;;12.00;99.90;;;;;;5053645;28;20071;-77
2021/11/30 11:19:59;;;;;;;4.53;2.33;;;12.10;99.90;;;;;;5054567;28;20025;-77
2021/11/30 11:22:27;;;;;;;4.00;2.13;;;12.20;99.90;;;;;;5054885;28;20476;-78
2021/11/30 11:24:58;;;;;;;4.82;2.50;;;12.20;99.90;;;;;;5054656;28;20025;-77
2021/11/30 11:27:39;;;;;;;6.18;2.53;;;12.20;99.90;;;;;;5053186;28;20021;-77
2021/11/30 11:30:08;;;;;;;3.50;1.83;;;12.30;99.90;;;;;;5053266;28;20035;-78
2021/11/30 11:32:34;;;;;;;4.07;2.20;;;12.30;99.90;;;;;;5055269;28;20056;-77
2021/11/30 11:35:03;;;;;;;3.97;2.05;;;12.30;99.90;;;;;;5055591;28;20025;-78
2021/11/30 11:37:29;;;;;;;3.75;2.00;;;12.30;99.90;;;;;;5054206;28;20025;-79
2021/11/30 11:39:55;;;;;;;3.63;1.70;;;12.40;99.90;;;;;;5052954;28;20059;-79
2021/11/30 11:42:22;;;;;;;3.58;1.40;;;12.40;99.90;;;;;;5054708;28;20033;-78
2021/11/30 11:44:50;;;;;;;2.72;1.45;;;12.40;99.90;;;;;;5037035;28;20047;-78
2021/11/30 11:47:25;;;;;;;3.60;1.70;;;12.50;99.90;;;;;;5054553;28;20063;-79
2021/11/30 11:49:54;;;;;;;2.55;1.50;;;12.50;99.90;;;;;;5054292;28;20025;-79
2021/11/30 11:52:35;;;;;;;4.25;2.08;;;12.50;99.90;;;;;;5054258;28;20021;-78
2021/11/30 11:55:12;;;;;;;3.35;2.30;;;12.50;99.90;;;;;;5050627;28;20022;-77
2021/11/30 11:58:21;;;;;;;4.15;2.15;;;12.50;99.90;;;;;;5050152;28;20022;-78
2021/11/30 12:00:55;;;;;;;4.75;2.30;;;12.50;99.90;;;;;;5026359;28;20044;-79
2021/11/30 12:03:21;;;;;;;2.70;1.52;;;12.50;99.90;;;;;;5030201;28;20514;-78
2021/11/30 12:05:51;;;;;;;1.35;1.00;;;12.50;99.90;;;;;;5023403;28;20086;-78
2021/11/30 12:08:27;;;;;;;1.80;1.10;;;12.50;99.90;;;;;;5048019;28;20537;-77
2021/11/30 12:10:54;;;;;;;1.65;1.00;;;12.50;99.90;;;;;;5032338;28;20456;-77
2021/11/30 12:13:22;;;;;;;1.52;1.00;;;12.50;99.90;;;;;;5033841;28;20117;-75
2021/11/30 12:16:09;;;;;;;1.98;0.95;;;12.40;99.90;;;;;;5032150;28;20071;-79
2021/11/30 12:18:47;;;;;;;1.95;1.02;;;12.40;99.90;;;;;;5015485;28;20155;-77
2021/11/30 12:21:20;;;;;;;1.45;0.90;;;12.40;99.90;;;;;;5016615;28;20056;-76
2021/11/30 12:23:48;;;;;;;3.05;1.50;;;12.40;99.90;;;;;;5033947;28;20132;-75
2021/11/30 12:26:31;;;;;;;4.25;1.52;;;12.30;99.90;;;;;;5034108;28;20017;-76
2021/11/30 12:28:59;;;;;;;2.92;1.48;;;12.30;99.90;;;;;;5033470;28;20029;-76
2021/11/30 12:31:41;;;;;;;3.05;1.30;;;12.30;99.90;;;;;;5032744;28;20033;-76
2021/11/30 12:34:08;;;;;;;1.33;0.88;;;12.30;99.90;;;;;;5033381;28;20052;-76
2021/11/30 12:36:37;;;;;;;1.55;0.88;;;12.40;99.90;;;;;;5048315;28;20388;-77
2021/11/30 12:39:05;;;;;;;3.20;1.10;;;12.40;99.90;;;;;;5035208;28;20039;-77
2021/11/30 12:41:38;;;;;;;2.13;1.00;;;12.40;99.90;;;;;;5033770;28;20515;-76
2021/11/30 12:44:15;;;;;;;1.67;0.70;;;12.50;99.90;;;;;;5033092;28;20030;-78
2021/11/30 12:46:45;;;;;;;2.35;1.20;;;12.50;99.90;;;;;;5033367;28;20128;-75
2021/11/30 12:49:32;;;;;;;3.70;1.45;;;12.60;99.90;;;;;;5033404;28;20029;-77
2021/11/30 12:52:26;;;;;;;3.83;1.77;;;12.70;99.90;;;;;;5033080;28;20021;-76
2021/11/30 12:54:59;;;;;;;4.57;1.58;;;12.70;99.90;;;;;;5033331;28;20120;-77
2021/11/30 12:57:33;;;;;;;2.63;1.08;;;12.70;99.90;;;;;;5031362;28;20405;-75
2021/11/30 13:00:09;;;;;;;1.73;0.90;;;12.80;99.90;;;;;;5031362;28;20367;-75
2021/11/30 13:02:41;;;;;;;5.72;1.67;;;12.80;99.90;;;;;;5032480;28;20083;-79
2021/11/30 13:05:27;;;;;;;3.55;1.58;;;12.80;99.90;;;;;;5033129;28;20443;-76
2021/11/30 13:07:54;;;;;;;3.90;1.83;;;12.90;99.90;;;;;;5032948;28;20018;-77